• Join FlightAware (Why Join?)
  • Login
  • US Flag 
08:52AM EST


 

Airport Tracker/Info


-or-


 

Live Flight TrackerFlight Track Log ✈ DAL1515 ✈ 10-Jul-2013 ✈ KATL - KALB

Flight Track Log - Related Links

Times and Time Zones

All times are in EDT time to prevent confusion due to time zone crossing. See the DAL1515 flight status page for this flight to view local times or setup timezone preferences in your user account.

Time Position Orientation Groundspeed Altitude Reporting Facility
EDT Latitude Longitude Course Direction KTS MPH feet Rate Location/Type
10:03PM 33.6500 -84.4667 North 168 193 2,300  Level Atlanta TRACON
10:04PM 33.6833 -84.5333 301° West 256 295 4,300 2,340 Climbing Atlanta TRACON
10:05PM 33.8513 -84.1846 320° Northwest  Level FlightAware Approximate
10:05PM 33.7333 -84.5833 320° Northwest 284 327 7,000  Level Atlanta TRACON
10:06PM 33.9558 -84.2667 North  Level FlightAware Approximate
10:06PM 33.8000 -84.5833 360° North 291 335 9,800  Level Atlanta TRACON
10:07PM 34.0849 -84.2667 North  Level FlightAware Approximate
10:07PM 33.8789 -84.4942 43° Northeast 312 359 10,800  Level Atlanta Center
10:08PM 34.2141 -84.2667 North  Level FlightAware Approximate
10:09PM 34.0653 -84.3547 32° Northeast 397 457 14,000  Level Atlanta Center
10:10PM 34.1758 -84.3200 15° North 398 458 15,800 1,500 Climbing Atlanta Center
10:11PM 34.2886 -84.2828 15° North 414 476 17,000 1,500 Climbing Atlanta Center
10:12PM 34.4056 -84.2528 12° North 419 482 18,800 1,380 Climbing Atlanta Center
10:13PM 34.5142 -84.2303 10° North 430 495 19,800 840 Climbing Atlanta Center
10:15PM 34.7141 -84.1667 North  Level FlightAware Approximate
10:16PM 34.8794 -84.1425 North 435 501 22,300  Level Atlanta Center
10:18PM 35.1319 -84.0819 11° North 448 516 25,300 1,140 Climbing Atlanta Center
10:20PM 35.3333 -84.0254 13° North  Level FlightAware Approximate
10:21PM 35.4992 -83.9953 13° North 448 516 28,000  Level Atlanta Center
10:23PM 35.6971 -83.9285 10° North  Level FlightAware Approximate
10:24PM 35.8767 -83.8978 10° North 453 521 30,300  Level Atlanta Center
10:26PM 36.1100 -83.7664 24° Northeast 447 514 31,000 180 Climbing Atlanta Center
10:27PM 36.2372 -83.6836 28° Northeast 457 526 31,000  Level Atlanta Center
10:28PM 36.3769 -83.5917 28° Northeast 463 533 31,000  Level Indianapolis Center
10:29PM 36.4922 -83.5178 27° Northeast 467 537 31,000  Level Indianapolis Center
10:30PM 36.6133 -83.4447 26° Northeast 474 545 31,000  Level Indianapolis Center
10:31PM 36.7208 -83.3494 35° Northeast 475 547 31,000  Level Indianapolis Center
10:32PM 36.8253 -83.2506 37° Northeast 470 541 31,000  Level Indianapolis Center
10:33PM 36.9328 -83.1511 36° Northeast 474 545 31,000  Level Indianapolis Center
10:34PM 37.0408 -83.0500 37° Northeast 475 547 31,000 480 Level Indianapolis Center
10:35PM 37.1475 -82.9456 38° Northeast 478 550 32,100 1,080 Climbing Indianapolis Center
10:36PM 37.2689 -82.8278 38° Northeast 469 540 33,200 1,080 Climbing Indianapolis Center
10:37PM 37.3747 -82.7275 37° Northeast 472 543 34,300 780 Climbing Indianapolis Center
10:38PM 37.4786 -82.6294 37° Northeast 465 535 34,900 300 Climbing Indianapolis Center
10:39PM 37.5806 -82.5300 38° Northeast 462 532 35,000  Climbing Indianapolis Center
10:40PM 37.6853 -82.4272 38° Northeast 472 543 35,000  Level Indianapolis Center
10:41PM 37.7900 -82.3253 38° Northeast 473 544 35,000  Level Indianapolis Center
10:43PM 37.8944 -82.2231 38° Northeast 473 544 35,000  Level Indianapolis Center
10:44PM 38.0053 -82.1150 38° Northeast 470 541 35,000  Level Indianapolis Center
10:45PM 38.1092 -82.0125 38° Northeast 472 543 35,000  Level Indianapolis Center
10:46PM 38.2125 -81.9094 38° Northeast 473 544 35,000  Level Indianapolis Center
10:47PM 38.3164 -81.8053 38° Northeast 475 547 35,000  Level Indianapolis Center
10:48PM 38.4100 -81.6878 45° Northeast 475 547 35,000  Level Indianapolis Center
10:49PM 38.4975 -81.5617 48° Northeast 478 550 35,000  Level Indianapolis Center
10:50PM 38.6014 -81.4083 49° Northeast 484 557 35,000  Level Indianapolis Center
10:51PM 38.6894 -81.2858 47° Northeast 479 551 35,000  Level Indianapolis Center
10:52PM 38.7775 -81.1569 49° Northeast 483 556 35,000  Level Indianapolis Center
10:53PM 38.8656 -81.0294 48° Northeast 483 556 35,000  Level Indianapolis Center
10:54PM 38.9564 -80.8997 48° Northeast 488 562 35,000  Level Indianapolis Center
10:55PM 39.0453 -80.7706 48° Northeast 485 558 35,000  Level Indianapolis Center
10:56PM 39.1369 -80.6444 47° Northeast 484 557 35,000  Level Indianapolis Center
10:57PM 39.2286 -80.5183 47° Northeast 483 556 35,000  Level Indianapolis Center
10:58PM 39.3378 -80.3678 47° Northeast 481 554 35,000  Level Indianapolis Center
10:59PM 39.3914 -80.2983 45° Northeast 475 547 35,000  Level Cleveland Center
11:00PM 39.4828 -80.1717 47° Northeast 475 547 35,000  Level Cleveland Center
11:01PM 39.5697 -80.0417 49° Northeast 475 547 35,000  Level Cleveland Center
11:01PM 39.6586 -79.9064 49° Northeast 475 547 35,000  Level Cleveland Center
11:02PM 39.7494 -79.7758 48° Northeast 480 552 35,000  Level Cleveland Center
11:03PM 39.8381 -79.6422 49° Northeast 485 558 35,000  Level Cleveland Center
11:05PM 39.9267 -79.5083 49° Northeast 490 564 35,000  Level Cleveland Center
11:06PM 40.0128 -79.3769 49° Northeast 485 558 35,000  Level Cleveland Center
11:07PM 40.0989 -79.2450 50° Northeast 485 558 35,000  Level Cleveland Center
11:07PM 40.1869 -79.1156 48° Northeast 480 552 35,000  Level Cleveland Center
11:09PM 40.2747 -78.9803 50° Northeast 480 552 35,000  Level Cleveland Center
11:10PM 40.3625 -78.8475 49° Northeast 480 552 35,000  Level Cleveland Center
11:10PM 40.4542 -78.7086 49° Northeast 486 559 35,000  Level Cleveland Center
11:12PM 40.6250 -78.4444 50° Northeast 473 544 35,000  Level New York Center
11:13PM 40.7131 -78.3092 49° Northeast 473 544 35,000  Level New York Center
11:14PM 40.8006 -78.1761 49° Northeast 473 544 35,000  Level New York Center
11:15PM 40.8883 -78.0400 50° Northeast 473 544 35,000 -120 Level New York Center
11:16PM 40.9775 -77.9092 48° Northeast 473 544 34,800 -720 Descending New York Center
11:17PM 41.0667 -77.7756 48° Northeast 479 551 33,600 -1,260 Descending New York Center
11:18PM 41.1508 -77.6575 47° Northeast 491 565 32,400 -1,080 Descending New York Center
11:19PM 41.2419 -77.5231 48° Northeast 491 565 31,500 -840 Descending New York Center
11:20PM 41.3442 -77.3731 48° Northeast 491 565 30,800 -960 Descending New York Center
11:21PM 41.4256 -77.2536 48° Northeast 491 565 29,700 -900 Descending New York Center
11:22PM 41.5164 -77.1156 49° Northeast 491 565 29,000 -360 Descending New York Center
11:23PM 41.6067 -76.9825 48° Northeast 486 559 29,000  Level New York Center
11:24PM 41.6950 -76.8464 49° Northeast 486 559 29,000  Level New York Center
11:25PM 41.7944 -76.6942 49° Northeast 486 559 29,000  Level New York Center
11:26PM 41.8842 -76.5600 48° Northeast 486 559 29,000 -1,260 Level New York Center
11:29PM 42.0794 -76.2642 48° Northeast 471 542 25,000 -1,560 Descending Boston Center
11:30PM 42.1592 -76.1261 52° Northeast 471 542 24,000 -540 Descending Boston Center
11:31PM 42.2103 -75.9639 67° East 459 528 24,000 -600 Level Boston Center
11:32PM 42.2528 -75.7922 71° East 464 534 22,800 -1,440 Descending Boston Center
11:33PM 42.2931 -75.6317 71° East 462 532 21,200 -1,500 Descending Boston Center
11:34PM 42.3350 -75.4681 71° East 451 519 19,900 -900 Descending Boston Center
11:35PM 42.3725 -75.3094 72° East 451 519 19,500 -1,080 Descending Boston Center
11:36PM 42.4094 -75.1594 72° East 435 501 17,800 -1,860 Descending Boston Center
11:37PM 42.4442 -75.0144 72° East 422 486 15,800 -1,800 Descending Boston Center
11:38PM 42.4786 -74.8697 72° East 410 472 14,300 -1,560 Descending Boston Center
11:38PM 42.5058 -74.7581 72° East 391 450 13,200 -1,500 Descending Boston Center
11:39PM 42.5378 -74.6211 72° East 390 449 11,700 -1,140 Descending Boston Center
11:40PM 42.5739 -74.4728 72° East 378 435 11,000 -900 Descending Boston Center
11:41PM 42.6008 -74.3611 72° East 309 356 10,000 -1,500 Descending Boston Center
11:42PM 42.6297 -74.2575 69° East 302 348 8,200 -1,620 Descending Boston Center
11:43PM 42.6994 -74.2031 30° Northeast 290 334 6,900 -1,620 Descending Boston Center
11:44PM 42.7669 -74.1428 33° Northeast 290 334 5,000 -1,500 Descending Boston Center
11:45PM 42.8264 -74.0764 39° Northeast 262 302 3,900 -1,020 Descending Boston Center
11:46PM 42.8733 -74.0011 50° Northeast 243 280 3,000 -480 Descending Boston Center
11:48PM 42.9017 -73.8883 71° East 245 282 2,800 -480 Descending Boston Center
11:48PM 42.8922 -73.8203 101° East 245 282 2,000 -1,020 Descending Boston Center